Neotsu, OR (97364)

5:45 AM PST on December 26, 2014 (GMT -0800)
MAP ROSE LODGE (P395) OR PSD | Change Station
CLOSE
Current Station
Personal Weather Station
Location: Otis, OR
Elevation: 173 ft
Nearby Weather Stations

Elev 173 ft 45.02 °N, 123.86 °W | Updated 45 minutes ago

Mostly Cloudy
Mostly Cloudy
40 °F
Feels Like 40 °F
N
2
Wind Variable Wind from East
Gusts 0.0 mph

Today
High -- | Low -- °F
--% Chance of Precip.
Yesterday
High -- | Low -- °F
Precip. -- in
7:53 AM 4:40 PM
Waxing Crescent, 26% visible
Pressure 30.35 in
Visibility 10.0 miles
Clouds Scattered Clouds 1900 ft
Mostly Cloudy 4100 ft
Windchill 40 °F
Dew Point 39 °F
Humidity 96%
Rainfall -999.00 in
Snow Depth Not available.
UV 0 out of 12
Pollen 1.60 out of 12
Air Quality Not available.
Flu Activity Not available.
METAR KONP 261335Z AUTO 08003KT 10SM SCT019 BKN041 06/06 A3035 RMK AO2

More Conditions Fewer Conditions

Pressure 30.35 in
Visibility 10.0 miles
Clouds Scattered Clouds 1900 ft
Mostly Cloudy 4100 ft
Windchill 40 °F
Dew Point 39 °F
Humidity 96%
Rainfall -999.00 in
Snow Depth Not available.
UV 0 out of 12
Pollen 1.60 out of 12
Air Quality Not available.
Flu Activity Not available.
METAR KONP 261335Z AUTO 08003KT 10SM SCT019 BKN041 06/06 A3035 RMK AO2

More Conditions Fewer Conditions

10-Day Weather Forecast

Almanac

Astronomy

Dec. 26, 2014 Rise Set
Actual Time
Civil Twilight
Nautical Twilight
Astronomical Twilight
Moon
Length of Visible Light
Length of Day
Tomorrow will be .
, % of the Moon is Illuminated

Today's Extremes

State Highs State Lows

Community

WunderPhotos

Upload Photos

1,780,593 photos uploaded!

WunderBlogs® & News

Nearby

Air Quality

  Air Quality AQ Index Pollutant
Not available.

Snow Depth

Station Depth Elevation

Earthquake Activity

City Distance Mag. Time & Date
Minimum magnitude displayed is 2.5.

Coastal Water Temperatures

Place Temperature

Nearby Weather Stations